sensor_id;sensor_type;location;lat;lon;timestamp;P1;durP1;ratioP1;P2;durP2;ratioP2
54458;SDS011;40368;49.350;8.152;2023-01-16T15:57:17;11;;;14;;
54458;SDS011;40368;49.350;8.152;2023-01-16T15:58:18;9;;;9;;
54458;SDS011;40368;49.350;8.152;2023-01-16T15:59:20;9;;;21;;
54458;SDS011;40368;49.350;8.152;2023-01-16T16:01:23;9;;;11;;
54458;SDS011;40368;49.350;8.152;2023-01-16T16:02:17;9;;;24;;
54458;SDS011;40368;49.350;8.152;2023-01-16T16:03:18;10;;;16;;
54458;SDS011;40368;49.350;8.152;2023-01-16T16:04:17;9;;;9;;
54458;SDS011;40368;49.350;8.152;2023-01-16T16:05:17;11;;;12;;
54458;SDS011;40368;49.350;8.152;2023-01-16T16:06:17;8;;;8;;
54458;SDS011;40368;49.350;8.152;2023-01-16T16:08:18;11;;;24;;
54458;SDS011;40368;49.350;8.152;2023-01-16T16:09:18;8;;;8;;
54458;SDS011;40368;49.350;8.152;2023-01-16T16:10:17;10;;;31;;
54458;SDS011;40368;49.350;8.152;2023-01-16T16:11:18;10;;;11;;
54458;SDS011;40368;49.350;8.152;2023-01-16T16:12:17;9;;;9;;
54458;SDS011;40368;49.350;8.152;2023-01-16T16:13:17;9;;;9;;
54458;SDS011;40368;49.350;8.152;2023-01-16T16:14:19;9;;;9;;
54458;SDS011;40368;49.350;8.152;2023-01-16T16:15:17;9;;;10;;
54458;SDS011;40368;49.350;8.152;2023-01-16T16:16:17;11;;;11;;
54458;SDS011;40368;49.350;8.152;2023-01-16T16:17:18;8;;;8;;
54458;SDS011;40368;49.350;8.152;2023-01-16T16:18:18;10;;;22;;
54458;SDS011;40368;49.350;8.152;2023-01-16T16:19:33;7;;;9;;
54458;SDS011;40368;49.350;8.152;2023-01-16T16:20:26;7;;;7;;
54458;SDS011;40368;49.350;8.152;2023-01-16T16:21:17;8;;;8;;
54458;SDS011;40368;49.350;8.152;2023-01-16T16:22:18;8;;;10;;
54458;SDS011;40368;49.350;8.152;2023-01-16T16:23:17;9;;;13;;
54458;SDS011;40368;49.350;8.152;2023-01-16T16:24:17;7;;;7;;
54458;SDS011;40368;49.350;8.152;2023-01-16T16:25:18;9;;;9;;
54458;SDS011;40368;49.350;8.152;2023-01-16T16:26:17;7;;;13;;
54458;SDS011;40368;49.350;8.152;2023-01-16T16:27:17;7;;;7;;
54458;SDS011;40368;49.350;8.152;2023-01-16T16:28:18;8;;;9;;
54458;SDS011;40368;49.350;8.152;2023-01-16T16:29:17;7;;;7;;
54458;SDS011;40368;49.350;8.152;2023-01-16T16:30:18;8;;;26;;
54458;SDS011;40368;49.350;8.152;2023-01-16T16:31:20;7;;;10;;
54458;SDS011;40368;49.350;8.152;2023-01-16T16:32:17;7;;;7;;
54458;SDS011;40368;49.350;8.152;2023-01-16T16:33:17;6;;;6;;
54458;SDS011;40368;49.350;8.152;2023-01-16T16:34:17;6;;;6;;
54458;SDS011;40368;49.350;8.152;2023-01-16T16:35:17;6;;;6;;
54458;SDS011;40368;49.350;8.152;2023-01-16T16:36:17;8;;;8;;
54458;SDS011;40368;49.350;8.152;2023-01-16T16:37:17;7;;;7;;
54458;SDS011;40368;49.350;8.152;2023-01-16T16:38:18;6;;;6;;
54458;SDS011;40368;49.350;8.152;2023-01-16T16:39:25;7;;;7;;
54458;SDS011;40368;49.350;8.152;2023-01-16T16:40:17;7;;;8;;
54458;SDS011;40368;49.350;8.152;2023-01-16T16:42:27;6;;;9;;
54458;SDS011;40368;49.350;8.152;2023-01-16T16:43:17;6;;;6;;
54458;SDS011;40368;49.350;8.152;2023-01-16T16:44:20;6;;;16;;
54458;SDS011;40368;49.350;8.152;2023-01-16T16:45:19;6;;;6;;
54458;SDS011;40368;49.350;8.152;2023-01-16T16:47:25;7;;;7;;
54458;SDS011;40368;49.350;8.152;2023-01-16T16:48:22;5;;;5;;
54458;SDS011;40368;49.350;8.152;2023-01-16T16:49:34;6;;;19;;
54458;SDS011;40368;49.350;8.152;2023-01-16T16:50:27;7;;;13;;
54458;SDS011;40368;49.350;8.152;2023-01-16T16:51:18;6;;;6;;
54458;SDS011;40368;49.350;8.152;2023-01-16T16:52:27;8;;;12;;
54458;SDS011;40368;49.350;8.152;2023-01-16T16:53:24;7;;;7;;
54458;SDS011;40368;49.350;8.152;2023-01-16T16:54:17;8;;;10;;
54458;SDS011;40368;49.350;8.152;2023-01-16T16:55:24;15;;;16;;
54458;SDS011;40368;49.350;8.152;2023-01-16T16:56:18;47;;;50;;
54458;SDS011;40368;49.350;8.152;2023-01-16T16:57:17;7;;;9;;
54458;SDS011;40368;49.350;8.152;2023-01-16T16:58:17;7;;;7;;
54458;SDS011;40368;49.350;8.152;2023-01-16T16:59:18;9;;;9;;
54458;SDS011;40368;49.350;8.152;2023-01-16T17:00:17;7;;;7;;
54458;SDS011;40368;49.350;8.152;2023-01-16T17:01:18;7;;;7;;
54458;SDS011;40368;49.350;8.152;2023-01-16T17:02:17;8;;;8;;
54458;SDS011;40368;49.350;8.152;2023-01-16T17:03:17;8;;;8;;
54458;SDS011;40368;49.350;8.152;2023-01-16T17:04:17;7;;;7;;
54458;SDS011;40368;49.350;8.152;2023-01-16T17:05:17;7;;;7;;
54458;SDS011;40368;49.350;8.152;2023-01-16T17:06:18;8;;;8;;
54458;SDS011;40368;49.350;8.152;2023-01-16T17:07:17;7;;;7;;
54458;SDS011;40368;49.350;8.152;2023-01-16T17:08:17;7;;;7;;
54458;SDS011;40368;49.350;8.152;2023-01-16T17:09:17;6;;;6;;
54458;SDS011;40368;49.350;8.152;2023-01-16T17:10:17;6;;;7;;
54458;SDS011;40368;49.350;8.152;2023-01-16T17:11:17;6;;;6;;
54458;SDS011;40368;49.350;8.152;2023-01-16T17:12:18;7;;;7;;
54458;SDS011;40368;49.350;8.152;2023-01-16T17:14:17;7;;;8;;
54458;SDS011;40368;49.350;8.152;2023-01-16T17:15:17;6;;;6;;
54458;SDS011;40368;49.350;8.152;2023-01-16T17:16:17;6;;;6;;
54458;SDS011;40368;49.350;8.152;2023-01-16T17:17:17;7;;;7;;
54458;SDS011;40368;49.350;8.152;2023-01-16T17:19:18;7;;;7;;
54458;SDS011;40368;49.350;8.152;2023-01-16T17:20:18;8;;;9;;
54458;SDS011;40368;49.350;8.152;2023-01-16T17:21:17;5;;;6;;
54458;SDS011;40368;49.350;8.152;2023-01-16T17:22:17;5;;;5;;
54458;SDS011;40368;49.350;8.152;2023-01-16T17:23:17;6;;;18;;
54458;SDS011;40368;49.350;8.152;2023-01-16T17:24:18;6;;;6;;
54458;SDS011;40368;49.350;8.152;2023-01-16T17:25:17;7;;;8;;
54458;SDS011;40368;49.350;8.152;2023-01-16T17:26:17;6;;;6;;
54458;SDS011;40368;49.350;8.152;2023-01-16T17:27:17;6;;;6;;
54458;SDS011;40368;49.350;8.152;2023-01-16T17:28:17;6;;;6;;
54458;SDS011;40368;49.350;8.152;2023-01-16T17:29:17;6;;;6;;
54458;SDS011;40368;49.350;8.152;2023-01-16T17:30:17;7;;;7;;
54458;SDS011;40368;49.350;8.152;2023-01-16T17:31:18;6;;;6;;
54458;SDS011;40368;49.350;8.152;2023-01-16T17:32:23;6;;;6;;
54458;SDS011;40368;49.350;8.152;2023-01-16T17:34:18;7;;;10;;
54458;SDS011;40368;49.350;8.152;2023-01-16T17:35:17;6;;;6;;
54458;SDS011;40368;49.350;8.152;2023-01-16T17:36:19;6;;;6;;
54458;SDS011;40368;49.350;8.152;2023-01-16T17:37:17;6;;;17;;
54458;SDS011;40368;49.350;8.152;2023-01-16T17:38:17;6;;;6;;
54458;SDS011;40368;49.350;8.152;2023-01-16T17:39:17;6;;;7;;
54458;SDS011;40368;49.350;8.152;2023-01-16T17:40:17;6;;;6;;
54458;SDS011;40368;49.350;8.152;2023-01-16T17:41:17;5;;;5;;
54458;SDS011;40368;49.350;8.152;2023-01-16T17:42:17;5;;;5;;
54458;SDS011;40368;49.350;8.152;2023-01-16T17:43:18;5;;;5;;
54458;SDS011;40368;49.350;8.152;2023-01-16T17:44:18;6;;;6;;
54458;SDS011;40368;49.350;8.152;2023-01-16T17:46:18;6;;;10;;
54458;SDS011;40368;49.350;8.152;2023-01-16T17:47:17;5;;;5;;
54458;SDS011;40368;49.350;8.152;2023-01-16T17:48:17;5;;;5;;
54458;SDS011;40368;49.350;8.152;2023-01-16T17:49:17;7;;;7;;
54458;SDS011;40368;49.350;8.152;2023-01-16T17:50:17;6;;;6;;
54458;SDS011;40368;49.350;8.152;2023-01-16T17:51:17;6;;;9;;
54458;SDS011;40368;49.350;8.152;2023-01-16T17:52:17;7;;;7;;
54458;SDS011;40368;49.350;8.152;2023-01-16T17:53:17;6;;;8;;
54458;SDS011;40368;49.350;8.152;2023-01-16T17:54:17;6;;;6;;
54458;SDS011;40368;49.350;8.152;2023-01-16T17:55:17;6;;;6;;
54458;SDS011;40368;49.350;8.152;2023-01-16T17:56:24;5;;;5;;
54458;SDS011;40368;49.350;8.152;2023-01-16T17:57:23;5;;;5;;
54458;SDS011;40368;49.350;8.152;2023-01-16T17:58:25;6;;;6;;
54458;SDS011;40368;49.350;8.152;2023-01-16T17:59:17;5;;;5;;
54458;SDS011;40368;49.350;8.152;2023-01-16T18:00:17;5;;;5;;
54458;SDS011;40368;49.350;8.152;2023-01-16T18:02:17;5;;;6;;
54458;SDS011;40368;49.350;8.152;2023-01-16T18:03:17;5;;;5;;
54458;SDS011;40368;49.350;8.152;2023-01-16T18:04:17;4;;;4;;
54458;SDS011;40368;49.350;8.152;2023-01-16T18:05:17;6;;;6;;
54458;SDS011;40368;49.350;8.152;2023-01-16T18:06:17;5;;;5;;
54458;SDS011;40368;49.350;8.152;2023-01-16T18:07:17;5;;;5;;
54458;SDS011;40368;49.350;8.152;2023-01-16T18:08:17;5;;;5;;
54458;SDS011;40368;49.350;8.152;2023-01-16T18:09:17;5;;;5;;
54458;SDS011;40368;49.350;8.152;2023-01-16T18:10:17;5;;;7;;
54458;SDS011;40368;49.350;8.152;2023-01-16T18:11:17;5;;;5;;
54458;SDS011;40368;49.350;8.152;2023-01-16T18:12:17;7;;;7;;
54458;SDS011;40368;49.350;8.152;2023-01-16T18:13:17;6;;;19;;
54458;SDS011;40368;49.350;8.152;2023-01-16T18:14:17;6;;;6;;
54458;SDS011;40368;49.350;8.152;2023-01-16T18:15:17;6;;;6;;
54458;SDS011;40368;49.350;8.152;2023-01-16T18:16:17;6;;;11;;
54458;SDS011;40368;49.350;8.152;2023-01-16T18:17:17;5;;;5;;
54458;SDS011;40368;49.350;8.152;2023-01-16T18:18:17;5;;;5;;
54458;SDS011;40368;49.350;8.152;2023-01-16T18:19:17;7;;;7;;
54458;SDS011;40368;49.350;8.152;2023-01-16T18:20:17;5;;;5;;
54458;SDS011;40368;49.350;8.152;2023-01-16T18:21:17;6;;;7;;
54458;SDS011;40368;49.350;8.152;2023-01-16T18:22:17;5;;;5;;
54458;SDS011;40368;49.350;8.152;2023-01-16T18:23:17;5;;;5;;
54458;SDS011;40368;49.350;8.152;2023-01-16T18:24:17;6;;;6;;
54458;SDS011;40368;49.350;8.152;2023-01-16T18:25:17;5;;;5;;
54458;SDS011;40368;49.350;8.152;2023-01-16T18:26:17;5;;;5;;
54458;SDS011;40368;49.350;8.152;2023-01-16T18:27:17;6;;;6;;
54458;SDS011;40368;49.350;8.152;2023-01-16T18:28:17;6;;;6;;
54458;SDS011;40368;49.350;8.152;2023-01-16T18:29:17;4;;;4;;
54458;SDS011;40368;49.350;8.152;2023-01-16T18:33:17;4;;;4;;
54458;SDS011;40368;49.350;8.152;2023-01-16T18:35:17;5;;;5;;
54458;SDS011;40368;49.350;8.152;2023-01-16T18:36:17;5;;;5;;
54458;SDS011;40368;49.350;8.152;2023-01-16T18:37:17;5;;;5;;
54458;SDS011;40368;49.350;8.152;2023-01-16T18:38:17;4;;;4;;
54458;SDS011;40368;49.350;8.152;2023-01-16T18:39:17;5;;;5;;
54458;SDS011;40368;49.350;8.152;2023-01-16T18:40:17;6;;;6;;
54458;SDS011;40368;49.350;8.152;2023-01-16T18:41:17;7;;;7;;
54458;SDS011;40368;49.350;8.152;2023-01-16T18:43:17;5;;;5;;
54458;SDS011;40368;49.350;8.152;2023-01-16T18:44:17;5;;;5;;
54458;SDS011;40368;49.350;8.152;2023-01-16T18:45:24;5;;;5;;
54458;SDS011;40368;49.350;8.152;2023-01-16T18:46:17;5;;;9;;
54458;SDS011;40368;49.350;8.152;2023-01-16T18:47:17;5;;;5;;
54458;SDS011;40368;49.350;8.152;2023-01-16T18:48:17;4;;;4;;
54458;SDS011;40368;49.350;8.152;2023-01-16T18:49:17;4;;;4;;
54458;SDS011;40368;49.350;8.152;2023-01-16T18:50:17;5;;;5;;
54458;SDS011;40368;49.350;8.152;2023-01-16T18:51:17;5;;;5;;
54458;SDS011;40368;49.350;8.152;2023-01-16T18:52:17;5;;;5;;
54458;SDS011;40368;49.350;8.152;2023-01-16T18:53:18;6;;;6;;
54458;SDS011;40368;49.350;8.152;2023-01-16T18:54:17;5;;;5;;
54458;SDS011;40368;49.350;8.152;2023-01-16T18:55:17;6;;;6;;
54458;SDS011;40368;49.350;8.152;2023-01-16T18:56:17;7;;;8;;
54458;SDS011;40368;49.350;8.152;2023-01-16T18:57:17;5;;;5;;
54458;SDS011;40368;49.350;8.152;2023-01-16T18:58:17;8;;;8;;
54458;SDS011;40368;49.350;8.152;2023-01-16T18:59:20;5;;;9;;
54458;SDS011;40368;49.350;8.152;2023-01-16T19:00:17;6;;;6;;
54458;SDS011;40368;49.350;8.152;2023-01-16T19:01:17;5;;;5;;
54458;SDS011;40368;49.350;8.152;2023-01-16T19:02:50;7;;;7;;
54458;SDS011;40368;49.350;8.152;2023-01-16T19:03:17;7;;;10;;
54458;SDS011;40368;49.350;8.152;2023-01-16T19:04:17;6;;;6;;
54458;SDS011;40368;49.350;8.152;2023-01-16T19:06:23;5;;;5;;
54458;SDS011;40368;49.350;8.152;2023-01-16T19:07:17;7;;;7;;
54458;SDS011;40368;49.350;8.152;2023-01-16T19:08:17;6;;;6;;
54458;SDS011;40368;49.350;8.152;2023-01-16T19:09:17;6;;;6;;
54458;SDS011;40368;49.350;8.152;2023-01-16T19:10:18;6;;;6;;
54458;SDS011;40368;49.350;8.152;2023-01-16T19:11:17;5;;;5;;
54458;SDS011;40368;49.350;8.152;2023-01-16T19:12:17;6;;;7;;
54458;SDS011;40368;49.350;8.152;2023-01-16T19:13:17;6;;;8;;
54458;SDS011;40368;49.350;8.152;2023-01-16T19:14:17;5;;;5;;
54458;SDS011;40368;49.350;8.152;2023-01-16T19:15:17;7;;;9;;
54458;SDS011;40368;49.350;8.152;2023-01-16T19:16:17;6;;;6;;
54458;SDS011;40368;49.350;8.152;2023-01-16T19:18:17;6;;;9;;
54458;SDS011;40368;49.350;8.152;2023-01-16T19:19:17;5;;;5;;
54458;SDS011;40368;49.350;8.152;2023-01-16T19:20:17;6;;;7;;
54458;SDS011;40368;49.350;8.152;2023-01-16T19:21:17;5;;;5;;
54458;SDS011;40368;49.350;8.152;2023-01-16T19:22:17;7;;;9;;
54458;SDS011;40368;49.350;8.152;2023-01-16T19:23:17;7;;;7;;
54458;SDS011;40368;49.350;8.152;2023-01-16T19:24:17;7;;;7;;
54458;SDS011;40368;49.350;8.152;2023-01-16T19:25:17;7;;;7;;
54458;SDS011;40368;49.350;8.152;2023-01-16T19:26:17;6;;;6;;
54458;SDS011;40368;49.350;8.152;2023-01-16T19:27:17;6;;;6;;
54458;SDS011;40368;49.350;8.152;2023-01-16T19:28:17;5;;;5;;
54458;SDS011;40368;49.350;8.152;2023-01-16T19:29:17;6;;;6;;
54458;SDS011;40368;49.350;8.152;2023-01-16T19:30:17;7;;;7;;
54458;SDS011;40368;49.350;8.152;2023-01-16T19:31:17;6;;;6;;
54458;SDS011;40368;49.350;8.152;2023-01-16T19:32:23;6;;;6;;
54458;SDS011;40368;49.350;8.152;2023-01-16T19:33:23;5;;;5;;
54458;SDS011;40368;49.350;8.152;2023-01-16T19:34:17;6;;;6;;
54458;SDS011;40368;49.350;8.152;2023-01-16T19:35:17;7;;;7;;
54458;SDS011;40368;49.350;8.152;2023-01-16T19:36:17;5;;;5;;
54458;SDS011;40368;49.350;8.152;2023-01-16T19:37:17;6;;;6;;
54458;SDS011;40368;49.350;8.152;2023-01-16T19:38:17;7;;;7;;
54458;SDS011;40368;49.350;8.152;2023-01-16T19:39:17;6;;;6;;
54458;SDS011;40368;49.350;8.152;2023-01-16T19:40:17;7;;;10;;
54458;SDS011;40368;49.350;8.152;2023-01-16T19:41:17;5;;;5;;
54458;SDS011;40368;49.350;8.152;2023-01-16T19:42:17;5;;;6;;
54458;SDS011;40368;49.350;8.152;2023-01-16T19:43:17;6;;;16;;
54458;SDS011;40368;49.350;8.152;2023-01-16T19:44:17;6;;;7;;
54458;SDS011;40368;49.350;8.152;2023-01-16T19:46:17;6;;;6;;
54458;SDS011;40368;49.350;8.152;2023-01-16T19:47:17;7;;;9;;
54458;SDS011;40368;49.350;8.152;2023-01-16T19:48:17;6;;;6;;
54458;SDS011;40368;49.350;8.152;2023-01-16T19:50:17;8;;;10;;
54458;SDS011;40368;49.350;8.152;2023-01-16T19:51:17;8;;;8;;
54458;SDS011;40368;49.350;8.152;2023-01-16T19:52:17;8;;;19;;
54458;SDS011;40368;49.350;8.152;2023-01-16T19:54:17;7;;;10;;
54458;SDS011;40368;49.350;8.152;2023-01-16T19:55:17;7;;;11;;
54458;SDS011;40368;49.350;8.152;2023-01-16T19:56:17;8;;;8;;
54458;SDS011;40368;49.350;8.152;2023-01-16T19:57:17;11;;;18;;
54458;SDS011;40368;49.350;8.152;2023-01-16T19:58:17;8;;;12;;
54458;SDS011;40368;49.350;8.152;2023-01-16T19:59:17;8;;;8;;
54458;SDS011;40368;49.350;8.152;2023-01-16T20:00:17;8;;;8;;
54458;SDS011;40368;49.350;8.152;2023-01-16T20:01:17;9;;;9;;
54458;SDS011;40368;49.350;8.152;2023-01-16T20:02:17;10;;;11;;
54458;SDS011;40368;49.350;8.152;2023-01-16T20:03:17;9;;;10;;
54458;SDS011;40368;49.350;8.152;2023-01-16T20:04:17;11;;;16;;
54458;SDS011;40368;49.350;8.152;2023-01-16T20:05:17;9;;;10;;
54458;SDS011;40368;49.350;8.152;2023-01-16T20:06:17;9;;;13;;
54458;SDS011;40368;49.350;8.152;2023-01-16T20:07:17;10;;;20;;
54458;SDS011;40368;49.350;8.152;2023-01-16T20:08:17;9;;;9;;
54458;SDS011;40368;49.350;8.152;2023-01-16T20:10:17;10;;;13;;
54458;SDS011;40368;49.350;8.152;2023-01-16T20:11:17;10;;;11;;
54458;SDS011;40368;49.350;8.152;2023-01-16T20:12:17;11;;;12;;
54458;SDS011;40368;49.350;8.152;2023-01-16T20:13:17;9;;;10;;
54458;SDS011;40368;49.350;8.152;2023-01-16T20:14:17;10;;;15;;
54458;SDS011;40368;49.350;8.152;2023-01-16T20:15:17;9;;;16;;
54458;SDS011;40368;49.350;8.152;2023-01-16T20:16:17;11;;;16;;
54458;SDS011;40368;49.350;8.152;2023-01-16T20:17:17;8;;;8;;
54458;SDS011;40368;49.350;8.152;2023-01-16T20:18:17;9;;;13;;
54458;SDS011;40368;49.350;8.152;2023-01-16T20:19:17;11;;;32;;
54458;SDS011;40368;49.350;8.152;2023-01-16T20:20:23;11;;;26;;
54458;SDS011;40368;49.350;8.152;2023-01-16T20:21:23;9;;;14;;
54458;SDS011;40368;49.350;8.152;2023-01-16T20:22:17;10;;;21;;
54458;SDS011;40368;49.350;8.152;2023-01-16T20:23:17;11;;;14;;
54458;SDS011;40368;49.350;8.152;2023-01-16T20:24:17;9;;;11;;
54458;SDS011;40368;49.350;8.152;2023-01-16T20:25:17;10;;;15;;
54458;SDS011;40368;49.350;8.152;2023-01-16T20:26:17;9;;;18;;
54458;SDS011;40368;49.350;8.152;2023-01-16T20:27:17;9;;;23;;
54458;SDS011;40368;49.350;8.152;2023-01-16T20:28:17;8;;;8;;
54458;SDS011;40368;49.350;8.152;2023-01-16T20:29:17;10;;;21;;
54458;SDS011;40368;49.350;8.152;2023-01-16T20:30:17;11;;;26;;
54458;SDS011;40368;49.350;8.152;2023-01-16T20:31:17;10;;;23;;
54458;SDS011;40368;49.350;8.152;2023-01-16T20:32:17;10;;;17;;
54458;SDS011;40368;49.350;8.152;2023-01-16T20:33:17;11;;;20;;
54458;SDS011;40368;49.350;8.152;2023-01-16T20:34:17;10;;;13;;
54458;SDS011;40368;49.350;8.152;2023-01-16T20:35:17;8;;;15;;
54458;SDS011;40368;49.350;8.152;2023-01-16T20:37:17;10;;;17;;
54458;SDS011;40368;49.350;8.152;2023-01-16T20:38:17;10;;;13;;
54458;SDS011;40368;49.350;8.152;2023-01-16T20:39:17;12;;;31;;
54458;SDS011;40368;49.350;8.152;2023-01-16T20:40:17;12;;;29;;
54458;SDS011;40368;49.350;8.152;2023-01-16T20:41:18;9;;;22;;
54458;SDS011;40368;49.350;8.152;2023-01-16T20:42:17;12;;;16;;
54458;SDS011;40368;49.350;8.152;2023-01-16T20:43:17;14;;;36;;
54458;SDS011;40368;49.350;8.152;2023-01-16T20:44:18;15;;;48;;
54458;SDS011;40368;49.350;8.152;2023-01-16T20:45:17;12;;;24;;
54458;SDS011;40368;49.350;8.152;2023-01-16T20:46:17;10;;;18;;
54458;SDS011;40368;49.350;8.152;2023-01-16T20:47:17;15;;;42;;
54458;SDS011;40368;49.350;8.152;2023-01-16T20:48:17;11;;;43;;
54458;SDS011;40368;49.350;8.152;2023-01-16T20:49:17;11;;;16;;
54458;SDS011;40368;49.350;8.152;2023-01-16T20:50:17;12;;;42;;
54458;SDS011;40368;49.350;8.152;2023-01-16T20:51:23;13;;;22;;
54458;SDS011;40368;49.350;8.152;2023-01-16T20:52:24;12;;;19;;
54458;SDS011;40368;49.350;8.152;2023-01-16T20:53:17;13;;;35;;
54458;SDS011;40368;49.350;8.152;2023-01-16T20:54:24;11;;;27;;
54458;SDS011;40368;49.350;8.152;2023-01-16T20:55:17;16;;;36;;
54458;SDS011;40368;49.350;8.152;2023-01-16T20:56:17;14;;;32;;
54458;SDS011;40368;49.350;8.152;2023-01-16T20:57:17;12;;;28;;
54458;SDS011;40368;49.350;8.152;2023-01-16T20:58:17;13;;;19;;
54458;SDS011;40368;49.350;8.152;2023-01-16T20:59:17;15;;;49;;
54458;SDS011;40368;49.350;8.152;2023-01-16T21:00:17;14;;;22;;
54458;SDS011;40368;49.350;8.152;2023-01-16T21:01:17;15;;;32;;
54458;SDS011;40368;49.350;8.152;2023-01-16T21:02:17;14;;;25;;
54458;SDS011;40368;49.350;8.152;2023-01-16T21:03:17;16;;;27;;
54458;SDS011;40368;49.350;8.152;2023-01-16T21:04:18;12;;;26;;
54458;SDS011;40368;49.350;8.152;2023-01-16T21:05:17;11;;;35;;
54458;SDS011;40368;49.350;8.152;2023-01-16T21:06:17;13;;;21;;
54458;SDS011;40368;49.350;8.152;2023-01-16T21:07:17;12;;;31;;
54458;SDS011;40368;49.350;8.152;2023-01-16T21:08:17;15;;;40;;
54458;SDS011;40368;49.350;8.152;2023-01-16T21:09:17;14;;;39;;
54458;SDS011;40368;49.350;8.152;2023-01-16T21:11:17;13;;;29;;
54458;SDS011;40368;49.350;8.152;2023-01-16T21:12:17;17;;;38;;
54458;SDS011;40368;49.350;8.152;2023-01-16T21:13:23;12;;;25;;
54458;SDS011;40368;49.350;8.152;2023-01-16T21:14:17;14;;;32;;
54458;SDS011;40368;49.350;8.152;2023-01-16T21:15:17;14;;;37;;
54458;SDS011;40368;49.350;8.152;2023-01-16T21:16:17;17;;;33;;
54458;SDS011;40368;49.350;8.152;2023-01-16T21:17:17;16;;;54;;
54458;SDS011;40368;49.350;8.152;2023-01-16T21:18:17;15;;;30;;
54458;SDS011;40368;49.350;8.152;2023-01-16T21:19:18;14;;;54;;
54458;SDS011;40368;49.350;8.152;2023-01-16T21:20:17;19;;;32;;
54458;SDS011;40368;49.350;8.152;2023-01-16T21:21:17;14;;;38;;
54458;SDS011;40368;49.350;8.152;2023-01-16T21:22:18;12;;;13;;
54458;SDS011;40368;49.350;8.152;2023-01-16T21:23:17;16;;;43;;
54458;SDS011;40368;49.350;8.152;2023-01-16T21:24:17;16;;;53;;
54458;SDS011;40368;49.350;8.152;2023-01-16T21:25:17;15;;;32;;
54458;SDS011;40368;49.350;8.152;2023-01-16T21:26:17;15;;;29;;
54458;SDS011;40368;49.350;8.152;2023-01-16T21:27:18;13;;;28;;
54458;SDS011;40368;49.350;8.152;2023-01-16T21:28:17;14;;;45;;
54458;SDS011;40368;49.350;8.152;2023-01-16T21:29:17;13;;;21;;
54458;SDS011;40368;49.350;8.152;2023-01-16T21:30:17;14;;;37;;
54458;SDS011;40368;49.350;8.152;2023-01-16T21:31:17;13;;;21;;
54458;SDS011;40368;49.350;8.152;2023-01-16T21:32:24;13;;;41;;
54458;SDS011;40368;49.350;8.152;2023-01-16T21:33:17;11;;;24;;
54458;SDS011;40368;49.350;8.152;2023-01-16T21:34:17;19;;;38;;
54458;SDS011;40368;49.350;8.152;2023-01-16T21:35:18;13;;;26;;
54458;SDS011;40368;49.350;8.152;2023-01-16T21:36:17;12;;;21;;
54458;SDS011;40368;49.350;8.152;2023-01-16T21:37:24;13;;;26;;
54458;SDS011;40368;49.350;8.152;2023-01-16T21:38:17;12;;;25;;
54458;SDS011;40368;49.350;8.152;2023-01-16T21:39:17;16;;;34;;
54458;SDS011;40368;49.350;8.152;2023-01-16T21:40:18;14;;;20;;
54458;SDS011;40368;49.350;8.152;2023-01-16T21:41:17;15;;;32;;
54458;SDS011;40368;49.350;8.152;2023-01-16T21:42:17;17;;;74;;
54458;SDS011;40368;49.350;8.152;2023-01-16T21:43:17;14;;;64;;
54458;SDS011;40368;49.350;8.152;2023-01-16T21:44:17;15;;;63;;
54458;SDS011;40368;49.350;8.152;2023-01-16T21:45:17;15;;;34;;
54458;SDS011;40368;49.350;8.152;2023-01-16T21:46:23;14;;;44;;
54458;SDS011;40368;49.350;8.152;2023-01-16T21:47:23;17;;;56;;
54458;SDS011;40368;49.350;8.152;2023-01-16T21:49:17;16;;;33;;
54458;SDS011;40368;49.350;8.152;2023-01-16T21:50:17;15;;;44;;
54458;SDS011;40368;49.350;8.152;2023-01-16T21:51:17;13;;;35;;
54458;SDS011;40368;49.350;8.152;2023-01-16T21:52:17;17;;;36;;
54458;SDS011;40368;49.350;8.152;2023-01-16T21:53:17;16;;;57;;
54458;SDS011;40368;49.350;8.152;2023-01-16T21:54:17;15;;;47;;
54458;SDS011;40368;49.350;8.152;2023-01-16T21:55:17;15;;;56;;
54458;SDS011;40368;49.350;8.152;2023-01-16T21:56:17;13;;;37;;
54458;SDS011;40368;49.350;8.152;2023-01-16T21:58:17;15;;;59;;
54458;SDS011;40368;49.350;8.152;2023-01-16T21:59:17;15;;;40;;
54458;SDS011;40368;49.350;8.152;2023-01-16T22:00:17;14;;;31;;
54458;SDS011;40368;49.350;8.152;2023-01-16T22:01:17;14;;;21;;
54458;SDS011;40368;49.350;8.152;2023-01-16T22:02:17;14;;;39;;
54458;SDS011;40368;49.350;8.152;2023-01-16T22:03:18;15;;;35;;
54458;SDS011;40368;49.350;8.152;2023-01-16T22:04:17;16;;;52;;
54458;SDS011;40368;49.350;8.152;2023-01-16T22:05:17;13;;;44;;
54458;SDS011;40368;49.350;8.152;2023-01-16T22:06:17;18;;;67;;
54458;SDS011;40368;49.350;8.152;2023-01-16T22:07:17;15;;;53;;
54458;SDS011;40368;49.350;8.152;2023-01-16T22:08:17;17;;;54;;
54458;SDS011;40368;49.350;8.152;2023-01-16T22:09:17;16;;;66;;
54458;SDS011;40368;49.350;8.152;2023-01-16T22:10:17;17;;;29;;
54458;SDS011;40368;49.350;8.152;2023-01-16T22:11:17;21;;;74;;
54458;SDS011;40368;49.350;8.152;2023-01-16T22:12:17;20;;;58;;
54458;SDS011;40368;49.350;8.152;2023-01-16T22:13:17;15;;;27;;
54458;SDS011;40368;49.350;8.152;2023-01-16T22:14:17;17;;;40;;
54458;SDS011;40368;49.350;8.152;2023-01-16T22:15:17;19;;;48;;
54458;SDS011;40368;49.350;8.152;2023-01-16T22:16:17;18;;;69;;
54458;SDS011;40368;49.350;8.152;2023-01-16T22:17:17;15;;;34;;
54458;SDS011;40368;49.350;8.152;2023-01-16T22:18:17;15;;;27;;
54458;SDS011;40368;49.350;8.152;2023-01-16T22:20:18;20;;;58;;
54458;SDS011;40368;49.350;8.152;2023-01-16T22:21:17;14;;;40;;
54458;SDS011;40368;49.350;8.152;2023-01-16T22:22:23;19;;;44;;
54458;SDS011;40368;49.350;8.152;2023-01-16T22:23:17;16;;;53;;
54458;SDS011;40368;49.350;8.152;2023-01-16T22:24:24;20;;;54;;
54458;SDS011;40368;49.350;8.152;2023-01-16T22:25:17;18;;;41;;
54458;SDS011;40368;49.350;8.152;2023-01-16T22:26:17;16;;;24;;
54458;SDS011;40368;49.350;8.152;2023-01-16T22:27:17;15;;;30;;
54458;SDS011;40368;49.350;8.152;2023-01-16T22:28:17;19;;;66;;
54458;SDS011;40368;49.350;8.152;2023-01-16T22:29:17;14;;;26;;
54458;SDS011;40368;49.350;8.152;2023-01-16T22:30:17;16;;;29;;
54458;SDS011;40368;49.350;8.152;2023-01-16T22:31:17;18;;;48;;
54458;SDS011;40368;49.350;8.152;2023-01-16T22:32:17;16;;;44;;
54458;SDS011;40368;49.350;8.152;2023-01-16T22:33:17;19;;;79;;
54458;SDS011;40368;49.350;8.152;2023-01-16T22:34:17;15;;;35;;
54458;SDS011;40368;49.350;8.152;2023-01-16T22:35:17;18;;;44;;
54458;SDS011;40368;49.350;8.152;2023-01-16T22:36:18;17;;;29;;
54458;SDS011;40368;49.350;8.152;2023-01-16T22:37:17;15;;;22;;
54458;SDS011;40368;49.350;8.152;2023-01-16T22:38:17;15;;;30;;
54458;SDS011;40368;49.350;8.152;2023-01-16T22:39:17;14;;;30;;
54458;SDS011;40368;49.350;8.152;2023-01-16T22:40:17;18;;;45;;
54458;SDS011;40368;49.350;8.152;2023-01-16T22:41:18;17;;;36;;
54458;SDS011;40368;49.350;8.152;2023-01-16T22:42:17;15;;;26;;
54458;SDS011;40368;49.350;8.152;2023-01-16T22:43:17;15;;;28;;
54458;SDS011;40368;49.350;8.152;2023-01-16T22:44:17;18;;;64;;
54458;SDS011;40368;49.350;8.152;2023-01-16T22:46:17;18;;;75;;
54458;SDS011;40368;49.350;8.152;2023-01-16T22:47:17;22;;;48;;
54458;SDS011;40368;49.350;8.152;2023-01-16T22:48:17;21;;;28;;
54458;SDS011;40368;49.350;8.152;2023-01-16T22:49:17;16;;;31;;
54458;SDS011;40368;49.350;8.152;2023-01-16T22:50:17;16;;;28;;
54458;SDS011;40368;49.350;8.152;2023-01-16T22:51:17;16;;;50;;
54458;SDS011;40368;49.350;8.152;2023-01-16T22:52:17;19;;;52;;
54458;SDS011;40368;49.350;8.152;2023-01-16T22:53:17;18;;;48;;
54458;SDS011;40368;49.350;8.152;2023-01-16T22:54:17;15;;;34;;